Time;durP1;ratioP1;P1;durP2;ratioP2;P2;SDS_P1;SDS_P2;PMS_P1;PMS_P2;Temp;Humidity;BMP_temperature;BMP_pressure;BME280_temperature;BME280_humidity;BME280_pressure;Samples;Min_cycle;Max_cycle;Signal;HPM_P1;HPM_P2
2022/12/24 00:01:18;;;;;;;;;1.00;1.00;;;;;3.92;100.00;97409.66;4919335;28;102561;-80
2022/12/24 00:03:46;;;;;;;;;1.00;1.00;;;;;3.93;100.00;97414.00;4931554;28;104153;-80
2022/12/24 00:06:22;;;;;;;;;2.25;2.00;;;;;3.93;100.00;97418.53;4938111;28;102435;-78
2022/12/24 00:08:50;;;;;;;;;2.25;1.00;;;;;3.91;100.00;97407.19;4931679;28;102014;-80
2022/12/24 00:11:18;;;;;;;;;1.50;1.00;;;;;3.86;100.00;97399.75;4928946;28;102181;-80
2022/12/24 00:13:45;;;;;;;;;0.00;0.00;;;;;3.92;100.00;97406.16;4921442;28;104107;-79
2022/12/24 00:16:12;;;;;;;;;1.00;0.25;;;;;3.95;100.00;97416.50;4929832;28;103959;-75
2022/12/24 00:18:40;;;;;;;;;0.00;0.00;;;;;3.90;100.00;97397.50;4932885;28;101974;-79
2022/12/24 00:21:13;;;;;;;;;1.50;1.00;;;;;3.90;100.00;97394.84;4928654;28;102057;-77
2022/12/24 00:23:40;;;;;;;;;1.00;1.00;;;;;3.95;100.00;97395.09;4914264;28;104242;-76
2022/12/24 00:26:11;;;;;;;;;1.00;1.00;;;;;3.94;100.00;97393.44;4925333;28;102413;-77
2022/12/24 00:28:38;;;;;;;;;2.00;1.00;;;;;3.95;100.00;97382.56;4919952;28;102231;-76
2022/12/24 00:31:14;;;;;;;;;1.25;1.00;;;;;3.95;100.00;97389.75;4900469;28;102769;-76
2022/12/24 00:33:42;;;;;;;;;1.00;1.00;;;;;3.93;100.00;97386.44;4932138;28;108938;-76
2022/12/24 00:36:09;;;;;;;;;1.00;0.00;;;;;3.95;100.00;97373.72;4937088;28;102170;-76
2022/12/24 00:38:36;;;;;;;;;1.00;1.00;;;;;3.94;100.00;97361.34;4925636;28;101950;-76
2022/12/24 00:41:05;;;;;;;;;1.00;1.00;;;;;3.95;100.00;97355.00;4937021;28;102387;-76
2022/12/24 00:43:32;;;;;;;;;2.00;1.00;;;;;3.92;100.00;97358.84;4933880;28;104081;-76
2022/12/24 00:45:59;;;;;;;;;1.25;1.00;;;;;3.96;100.00;97348.63;4920594;28;102328;-76
2022/12/24 00:48:26;;;;;;;;;0.00;0.00;;;;;3.94;100.00;97339.97;4931707;28;102127;-77
2022/12/24 00:50:53;;;;;;;;;0.50;0.50;;;;;3.96;100.00;97343.28;4939063;28;101959;-76
2022/12/24 00:53:20;;;;;;;;;0.50;0.50;;;;;3.98;100.00;97339.38;4932149;28;103975;-76
2022/12/24 00:55:47;;;;;;;;;1.00;1.00;;;;;4.00;100.00;97341.88;4926261;28;102265;-76
2022/12/24 00:58:14;;;;;;;;;1.50;0.75;;;;;4.01;100.00;97340.84;4925859;28;102036;-75
2022/12/24 01:00:41;;;;;;;;;0.00;0.00;;;;;4.03;100.00;97333.47;4926628;28;102215;-76
2022/12/24 01:03:08;;;;;;;;;6.00;5.00;;;;;4.02;100.00;97342.50;4923943;28;108522;-76
2022/12/24 01:05:35;;;;;;;;;9.00;7.00;;;;;4.01;100.00;97327.47;4926936;28;102244;-75
2022/12/24 01:08:02;;;;;;;;;9.00;7.75;;;;;4.01;100.00;97330.16;4916125;28;101942;-75
2022/12/24 01:10:29;;;;;;;;;6.75;6.00;;;;;4.01;100.00;97335.50;4933496;28;102240;-75
2022/12/24 01:12:56;;;;;;;;;3.50;3.00;;;;;4.03;100.00;97346.84;4919509;28;104059;-75
2022/12/24 01:15:23;;;;;;;;;5.50;2.75;;;;;4.04;100.00;97346.66;4930114;28;102404;-76
2022/12/24 01:17:50;;;;;;;;;2.00;2.00;;;;;4.01;100.00;97341.69;4924066;28;102113;-73
2022/12/24 01:20:17;;;;;;;;;1.50;1.00;;;;;4.08;100.00;97344.44;4922487;28;102261;-73
2022/12/24 01:22:45;;;;;;;;;0.25;0.00;;;;;4.09;100.00;97340.75;4935722;28;102924;-73
2022/12/24 01:25:12;;;;;;;;;1.00;1.00;;;;;4.07;100.00;97333.91;4921756;28;102306;-73
2022/12/24 01:27:39;;;;;;;;;1.00;1.00;;;;;4.10;100.00;97333.56;4909992;28;104533;-75
2022/12/24 01:30:07;;;;;;;;;3.00;1.75;;;;;4.10;100.00;97334.34;4931406;28;102081;-76
2022/12/24 01:32:35;;;;;;;;;2.00;0.50;;;;;3.84;100.00;97312.69;4908906;28;104102;-75
2022/12/24 01:35:02;;;;;;;;;0.00;0.00;;;;;4.08;100.00;97352.44;4931427;28;102125;-75
2022/12/24 01:37:29;;;;;;;;;0.00;0.00;;;;;4.08;100.00;97356.97;4919694;28;102202;-75
2022/12/24 01:43:22;;;;;;;;;2.00;1.00;;;;;4.09;100.00;97351.44;4913016;28;102132;-75
2022/12/24 01:45:53;;;;;;;;;1.00;1.00;;;;;4.09;100.00;97355.97;4937090;28;102112;-75
2022/12/24 01:48:27;;;;;;;;;0.00;0.00;;;;;4.10;100.00;97361.09;4924788;28;102071;-76
2022/12/24 01:51:03;;;;;;;;;1.00;0.50;;;;;4.10;100.00;97342.38;4936698;28;102307;-75
2022/12/24 01:53:33;;;;;;;;;0.25;0.00;;;;;4.06;100.00;97338.44;4924302;28;104032;-76
2022/12/24 01:56:01;;;;;;;;;0.00;0.00;;;;;4.05;100.00;97342.16;4926915;28;102155;-76
2022/12/24 01:58:29;;;;;;;;;0.25;0.25;;;;;4.12;100.00;97344.88;4920497;28;102337;-76
2022/12/24 02:00:56;;;;;;;;;1.00;1.00;;;;;4.11;100.00;97330.66;4925207;28;102235;-76
2022/12/24 02:03:23;;;;;;;;;1.00;1.00;;;;;4.11;100.00;97327.16;4923137;28;104013;-74
2022/12/24 02:05:53;;;;;;;;;1.00;1.00;;;;;4.08;100.00;97322.19;4918246;28;102221;-74
2022/12/24 02:08:21;;;;;;;;;1.00;0.00;;;;;4.09;100.00;97323.88;4914234;28;102330;-74
2022/12/24 02:10:55;;;;;;;;;0.50;0.50;;;;;4.12;100.00;97318.13;4934118;28;102446;-76
2022/12/24 02:13:48;;;;;;;;;1.50;1.00;;;;;4.19;100.00;97319.81;4926681;28;103032;-75
2022/12/24 02:16:56;;;;;;;;;1.50;0.75;;;;;4.26;100.00;97327.91;4904349;28;102160;-75
2022/12/24 02:19:55;;;;;;;;;1.50;0.00;;;;;4.31;100.00;97323.66;4906591;28;102136;-75
2022/12/24 02:22:54;;;;;;;;;0.00;0.00;;;;;4.35;100.00;97327.59;4925168;28;102416;-75
2022/12/24 02:26:09;;;;;;;;;0.25;0.00;;;;;4.39;100.00;97325.34;4916169;28;108710;-75
2022/12/24 02:29:14;;;;;;;;;0.00;0.00;;;;;4.40;100.00;97338.56;4920554;28;102056;-74
2022/12/24 02:31:59;;;;;;;;;0.00;0.00;;;;;4.42;100.00;97341.00;4915021;28;103177;-76
2022/12/24 02:34:35;;;;;;;;;0.00;0.00;;;;;4.42;100.00;97331.16;4903919;28;102788;-75
2022/12/24 02:37:16;;;;;;;;;0.00;0.00;;;;;4.44;100.00;97329.13;4907704;28;104014;-76
2022/12/24 02:39:53;;;;;;;;;0.00;0.00;;;;;4.44;100.00;97326.44;4923811;28;102228;-76
2022/12/24 02:42:33;;;;;;;;;0.00;0.00;;;;;4.46;100.00;97323.53;4906996;28;104028;-76
2022/12/24 02:45:09;;;;;;;;;0.00;0.00;;;;;4.50;100.00;97325.66;4910227;28;102407;-76
2022/12/24 02:47:38;;;;;;;;;0.00;0.00;;;;;4.52;100.00;97311.25;4907596;28;104040;-76
2022/12/24 02:50:08;;;;;;;;;0.75;0.75;;;;;4.52;100.00;97311.25;4906333;28;102350;-76
2022/12/24 02:52:41;;;;;;;;;0.00;0.00;;;;;4.52;100.00;97324.63;4915335;28;102316;-76
2022/12/24 02:55:08;;;;;;;;;1.00;0.25;;;;;4.48;100.00;97311.66;4917706;28;102392;-75
2022/12/24 02:58:17;;;;;;;;;0.00;0.00;;;;;4.46;100.00;97321.69;4908476;28;104104;-76
2022/12/24 03:01:14;;;;;;;;;0.00;0.00;;;;;4.52;100.00;97332.66;4907928;28;101999;-76
2022/12/24 03:04:15;;;;;;;;;0.00;0.00;;;;;4.55;100.00;97332.28;4920416;28;103019;-76
2022/12/24 03:06:48;;;;;;;;;0.00;0.00;;;;;4.58;100.00;97331.91;4920237;28;102454;-76
2022/12/24 03:09:33;;;;;;;;;0.00;0.00;;;;;4.57;100.00;97322.19;4911339;28;108547;-73
2022/12/24 03:12:11;;;;;;;;;0.00;0.00;;;;;4.59;100.00;97330.88;4912856;28;102274;-76
2022/12/24 03:14:40;;;;;;;;;0.00;0.00;;;;;4.63;100.00;97340.16;4910003;28;101956;-76
2022/12/24 03:17:09;;;;;;;;;0.00;0.00;;;;;4.64;100.00;97347.19;4909363;28;102326;-76
2022/12/24 03:19:36;;;;;;;;;0.00;0.00;;;;;4.63;100.00;97362.41;4914480;28;104059;-76
2022/12/24 03:22:07;;;;;;;;;0.00;0.00;;;;;4.56;100.00;97350.81;4918138;28;101890;-76
2022/12/24 03:24:35;;;;;;;;;0.00;0.00;;;;;4.63;100.00;97364.25;4916380;28;102048;-76
2022/12/24 03:27:05;;;;;;;;;0.00;0.00;;;;;4.59;100.00;97366.50;4887792;28;103940;-76
2022/12/24 03:29:32;;;;;;;;;0.00;0.00;;;;;4.62;100.00;97374.13;4901731;28;104099;-76
2022/12/24 03:32:02;;;;;;;;;0.00;0.00;;;;;4.63;100.00;97375.81;4921587;28;102081;-76
2022/12/24 03:34:30;;;;;;;;;0.00;0.00;;;;;4.67;100.00;97378.91;4918943;28;101970;-76
2022/12/24 03:36:58;;;;;;;;;0.75;0.00;;;;;4.69;100.00;97371.50;4919006;28;103053;-76
2022/12/24 03:39:24;;;;;;;;;0.00;0.00;;;;;4.72;100.00;97373.81;4909374;28;104014;-76
2022/12/24 03:41:51;;;;;;;;;0.00;0.00;;;;;4.73;100.00;97370.91;4917100;28;102342;-76
2022/12/24 03:44:18;;;;;;;;;1.00;0.00;;;;;4.71;100.00;97364.13;4922491;28;102047;-76
2022/12/24 03:46:45;;;;;;;;;0.00;0.00;;;;;4.77;100.00;97382.09;4893306;28;104740;-73
2022/12/24 03:49:12;;;;;;;;;0.00;0.00;;;;;4.75;100.00;97376.91;4912438;28;104173;-76
2022/12/24 03:51:39;;;;;;;;;0.00;0.00;;;;;4.78;100.00;97375.69;4914648;28;102125;-76
2022/12/24 03:54:06;;;;;;;;;0.00;0.00;;;;;4.78;100.00;97368.50;4921273;28;102129;-76
2022/12/24 03:56:33;;;;;;;;;0.25;0.00;;;;;4.78;100.00;97375.69;4919221;28;102157;-76
2022/12/24 03:59:00;;;;;;;;;0.25;0.00;;;;;4.73;100.00;97364.72;4919996;28;104047;-76
2022/12/24 04:01:27;;;;;;;;;1.75;1.00;;;;;4.82;100.00;97387.66;4923225;28;102110;-76
2022/12/24 04:03:54;;;;;;;;;1.50;0.25;;;;;4.79;100.00;97372.81;4916607;28;102077;-76
2022/12/24 04:06:21;;;;;;;;;1.00;1.00;;;;;4.80;100.00;97374.50;4916471;28;101956;-76
2022/12/24 04:08:48;;;;;;;;;0.00;0.00;;;;;4.82;100.00;97374.28;4916919;28;103732;-76
2022/12/24 04:11:16;;;;;;;;;1.25;0.00;;;;;4.80;100.00;97371.81;4918709;28;103362;-76
2022/12/24 04:13:43;;;;;;;;;1.00;0.00;;;;;4.77;100.00;97371.38;4911126;28;102361;-76
2022/12/24 04:16:13;;;;;;;;;0.00;0.00;;;;;4.78;100.00;97378.38;4892443;28;102412;-76
2022/12/24 04:18:41;;;;;;;;;0.25;0.00;;;;;4.78;100.00;97370.34;4896218;28;106918;-76
2022/12/24 04:21:09;;;;;;;;;1.00;1.00;;;;;4.80;100.00;97374.50;4888745;28;102125;-76
2022/12/24 04:23:37;;;;;;;;;1.00;0.75;;;;;4.81;100.00;97373.47;4890174;28;102298;-77
2022/12/24 04:26:07;;;;;;;;;0.00;0.00;;;;;4.82;100.00;97367.06;4902048;28;102344;-76
2022/12/24 04:28:34;;;;;;;;;0.50;0.50;;;;;4.83;100.00;97362.56;4896700;28;104183;-76
2022/12/24 04:31:09;;;;;;;;;0.00;0.00;;;;;4.81;100.00;97365.44;4899920;28;102253;-76
2022/12/24 04:33:37;;;;;;;;;1.00;0.00;;;;;4.82;100.00;97366.25;4902061;28;102225;-76
2022/12/24 04:36:05;;;;;;;;;0.00;0.00;;;;;4.82;100.00;97364.41;4905963;28;102234;-76
2022/12/24 04:38:33;;;;;;;;;0.00;0.00;;;;;4.83;100.00;97376.78;4910237;28;104066;-77
2022/12/24 04:41:10;;;;;;;;;0.00;0.00;;;;;4.82;100.00;97371.59;4905153;28;101991;-76
2022/12/24 04:43:44;;;;;;;;;1.75;0.25;;;;;4.80;100.00;97357.59;4901951;28;102120;-77
2022/12/24 04:46:17;;;;;;;;;0.00;0.00;;;;;4.82;100.00;97366.25;4909685;28;102311;-76
2022/12/24 04:48:46;;;;;;;;;1.00;0.75;;;;;4.78;100.00;97373.00;4899918;28;108776;-76
2022/12/24 04:51:14;;;;;;;;;0.50;0.00;;;;;4.81;100.00;97378.00;4901451;28;102149;-76
2022/12/24 04:53:41;;;;;;;;;0.00;0.00;;;;;4.75;100.00;97370.72;4897812;28;102155;-76
2022/12/24 04:56:15;;;;;;;;;0.00;0.00;;;;;4.81;100.00;97380.69;4908811;28;101987;-76
2022/12/24 04:58:43;;;;;;;;;1.00;0.50;;;;;4.71;100.00;97364.13;4909890;28;108551;-76
2022/12/24 05:01:17;;;;;;;;;0.50;0.00;;;;;4.82;100.00;97379.63;4903760;28;102350;-75
2022/12/24 05:03:44;;;;;;;;;0.00;0.00;;;;;4.81;100.00;97376.16;4902035;28;102342;-73
2022/12/24 05:06:13;;;;;;;;;0.00;0.00;;;;;4.82;100.00;97376.94;4901585;28;102133;-73
2022/12/24 05:08:42;;;;;;;;;0.25;0.25;;;;;4.82;100.00;97375.09;4909384;28;108456;-73
2022/12/24 05:11:14;;;;;;;;;0.00;0.00;;;;;4.81;100.00;97372.66;4896437;28;102116;-73
2022/12/24 05:13:42;;;;;;;;;2.00;0.00;;;;;4.80;100.00;97371.81;4900306;28;102019;-72
2022/12/24 05:16:14;;;;;;;;;0.00;0.00;;;;;4.78;100.00;97375.69;4920477;28;103325;-73
2022/12/24 05:18:41;;;;;;;;;0.00;0.00;;;;;4.73;100.00;97375.44;4923018;28;111330;-73
2022/12/24 05:21:20;;;;;;;;;0.00;0.00;;;;;4.72;100.00;97377.31;4926623;28;101991;-73
2022/12/24 05:26:35;;;;;;;;;0.00;0.00;;;;;4.70;100.00;97392.72;4926976;28;101962;-73
2022/12/24 05:29:04;;;;;;;;;0.00;0.00;;;;;4.67;100.00;97390.47;4899667;28;104073;-73
2022/12/24 05:31:32;;;;;;;;;0.00;0.00;;;;;4.70;100.00;97392.72;4918527;28;102151;-73
2022/12/24 05:34:00;;;;;;;;;0.00;0.00;;;;;4.71;100.00;97398.91;4923075;28;102288;-73
2022/12/24 05:36:28;;;;;;;;;0.00;0.00;;;;;4.70;100.00;97395.41;4907923;28;102108;-73
2022/12/24 05:38:55;;;;;;;;;0.00;0.00;;;;;4.68;100.00;97391.28;4920216;28;103939;-73
2022/12/24 05:41:22;;;;;;;;;0.00;0.00;;;;;4.70;100.00;97395.41;4932396;28;102898;-73
2022/12/24 05:43:49;;;;;;;;;0.00;0.00;;;;;4.72;100.00;97395.22;4922363;28;102037;-73
2022/12/24 05:46:18;;;;;;;;;0.75;0.00;;;;;4.75;100.00;97403.69;4937232;28;102283;-74
2022/12/24 05:48:46;;;;;;;;;0.00;0.00;;;;;4.79;100.00;97404.97;4926860;28;104134;-73
2022/12/24 05:51:18;;;;;;;;;0.25;0.00;;;;;4.82;100.00;97406.41;4921494;28;103455;-74
2022/12/24 05:53:46;;;;;;;;;0.00;0.00;;;;;4.83;100.00;97398.19;4928170;28;102114;-73
2022/12/24 05:56:17;;;;;;;;;0.75;0.00;;;;;4.83;100.00;97395.50;4930981;28;102169;-72
2022/12/24 05:58:44;;;;;;;;;0.00;0.00;;;;;4.84;100.00;97404.38;4923375;28;108865;-72
2022/12/24 06:01:12;;;;;;;;;0.00;0.00;;;;;4.81;100.00;97407.47;4925798;28;102627;-73
2022/12/24 06:03:39;;;;;;;;;0.75;0.00;;;;;4.78;100.00;97407.81;4932774;28;102156;-73
2022/12/24 06:06:09;;;;;;;;;0.00;0.00;;;;;4.80;100.00;97400.44;4929923;28;102137;-73
2022/12/24 06:08:37;;;;;;;;;0.00;0.00;;;;;4.79;100.00;97410.31;4928758;28;104193;-72
2022/12/24 06:11:07;;;;;;;;;1.00;0.00;;;;;4.80;100.00;97411.97;4930075;28;102157;-73
2022/12/24 06:13:35;;;;;;;;;0.00;0.00;;;;;4.82;100.00;97420.63;4921447;28;102066;-73
2022/12/24 06:16:04;;;;;;;;;0.00;0.00;;;;;4.78;100.00;97413.19;4924951;28;102177;-73
2022/12/24 06:18:33;;;;;;;;;0.75;0.00;;;;;4.84;100.00;97417.78;4921587;28;103490;-73
2022/12/24 06:21:00;;;;;;;;;1.00;0.00;;;;;4.85;100.00;97424.78;4928194;28;102330;-73
2022/12/24 06:23:29;;;;;;;;;0.00;0.00;;;;;4.86;100.00;97437.97;4908749;28;102051;-73
2022/12/24 06:25:59;;;;;;;;;0.00;0.00;;;;;4.85;100.00;97443.53;4924488;28;102175;-72
2022/12/24 06:28:32;;;;;;;;;1.00;0.00;;;;;4.86;100.00;97442.53;4909858;28;104088;-73
2022/12/24 06:31:00;;;;;;;;;1.00;0.00;;;;;4.87;100.00;97450.34;4915888;28;102425;-72
2022/12/24 06:33:30;;;;;;;;;0.00;0.00;;;;;4.85;100.00;97446.22;4913370;28;102247;-72
2022/12/24 06:35:58;;;;;;;;;0.00;0.00;;;;;4.86;100.00;97447.88;4917019;28;102112;-73
2022/12/24 06:38:25;;;;;;;;;0.00;0.00;;;;;4.86;100.00;97437.16;4913233;28;104032;-73
2022/12/24 06:40:54;;;;;;;;;0.00;0.00;;;;;4.90;100.00;97449.16;4912577;28;103177;-72
2022/12/24 06:43:21;;;;;;;;;1.25;0.50;;;;;4.93;100.00;97448.75;4920567;28;102503;-73
2022/12/24 06:45:49;;;;;;;;;0.75;0.00;;;;;4.95;100.00;97446.72;4922055;28;103133;-72
2022/12/24 06:48:16;;;;;;;;;0.00;0.00;;;;;4.98;100.00;97451.69;4917656;28;103858;-73
2022/12/24 06:50:43;;;;;;;;;0.00;0.00;;;;;4.93;100.00;97449.56;4928815;28;102448;-77
2022/12/24 06:53:10;;;;;;;;;0.00;0.00;;;;;4.80;100.00;97417.34;4907804;28;102354;-76
2022/12/24 06:55:38;;;;;;;;;1.00;0.00;;;;;4.78;100.00;97415.84;4911698;28;102035;-76
2022/12/24 06:58:05;;;;;;;;;0.00;0.00;;;;;5.00;100.00;97449.63;4913874;28;105484;-76
2022/12/24 07:00:32;;;;;;;;;0.50;0.00;;;;;4.89;100.00;97437.59;4912896;28;102708;-75
2022/12/24 07:02:59;;;;;;;;;0.00;0.00;;;;;4.90;100.00;97439.25;4919667;28;102022;-75
2022/12/24 07:05:27;;;;;;;;;0.00;0.00;;;;;4.92;100.00;97439.03;4930739;28;102444;-75
2022/12/24 07:07:55;;;;;;;;;0.00;0.00;;;;;5.07;100.00;97465.75;4926142;28;104019;-75
2022/12/24 07:10:22;;;;;;;;;0.00;0.00;;;;;4.96;100.00;97448.34;4927048;28;102363;-76
2022/12/24 07:12:49;;;;;;;;;0.00;0.00;;;;;5.05;100.00;97473.97;4922000;28;101939;-75
2022/12/24 07:15:16;;;;;;;;;0.00;0.00;;;;;5.07;100.00;97473.78;4933574;28;105075;-75
2022/12/24 07:17:43;;;;;;;;;0.00;0.00;;;;;4.89;100.00;97444.81;4934054;28;108474;-75
2022/12/24 07:20:16;;;;;;;;;0.00;0.00;;;;;5.15;100.00;97487.88;4922789;28;102215;-74
2022/12/24 07:22:43;;;;;;;;;1.00;0.00;;;;;5.17;100.00;97485.00;4923673;28;102995;-75
2022/12/24 07:25:10;;;;;;;;;0.00;0.00;;;;;5.09;100.00;97480.59;4909424;28;102073;-76
2022/12/24 07:27:38;;;;;;;;;0.00;0.00;;;;;5.20;100.00;97493.47;4899127;28;104070;-75
2022/12/24 07:30:06;;;;;;;;;0.00;0.00;;;;;5.08;100.00;97473.59;4919256;28;102577;-76
2022/12/24 07:32:33;;;;;;;;;0.00;0.00;;;;;5.11;100.00;97475.06;4917161;28;102440;-75
2022/12/24 07:35:01;;;;;;;;;0.00;0.00;;;;;5.23;100.00;97495.75;4909633;28;102481;-72
2022/12/24 07:37:28;;;;;;;;;0.00;0.00;;;;;5.18;100.00;97479.44;4915476;28;103943;-77
2022/12/24 07:39:54;;;;;;;;;0.00;0.00;;;;;5.27;100.00;97505.06;4914313;28;102160;-77
2022/12/24 07:42:22;;;;;;;;;0.00;0.00;;;;;5.21;100.00;97495.13;4914957;28;101901;-81
2022/12/24 07:44:48;;;;;;;;;0.00;0.00;;;;;5.14;100.00;97480.00;4913015;28;108283;-75
2022/12/24 07:47:15;;;;;;;;;1.00;0.00;;;;;5.16;100.00;97489.53;4910181;28;104101;-76
2022/12/24 07:49:42;;;;;;;;;0.00;0.00;;;;;5.37;100.00;97508.25;4917044;28;102321;-76
2022/12/24 07:52:09;;;;;;;;;0.00;0.00;;;;;5.41;100.00;97522.06;4909809;28;102271;-76
2022/12/24 07:54:36;;;;;;;;;0.00;0.00;;;;;5.27;100.00;97488.97;4927579;28;102651;-76
2022/12/24 07:57:03;;;;;;;;;0.00;0.00;;;;;5.46;100.00;97524.16;4919408;28;104026;-76
2022/12/24 07:59:30;;;;;;;;;0.00;0.00;;;;;5.20;100.00;97476.56;4917805;28;104008;-75
2022/12/24 08:01:57;;;;;;;;;0.00;0.00;;;;;5.35;100.00;97507.63;4916718;28;102277;-76
2022/12/24 08:04:25;;;;;;;;;0.00;0.00;;;;;5.32;100.00;97496.44;4921098;28;102325;-76
2022/12/24 08:06:52;;;;;;;;;0.00;0.00;;;;;5.55;100.00;97534.56;4918317;28;103994;-76
2022/12/24 08:09:19;;;;;;;;;0.50;0.50;;;;;5.31;100.00;97484.88;4915658;28;102337;-76
2022/12/24 08:11:46;;;;;;;;;1.00;1.00;;;;;5.56;100.00;97521.97;4921541;28;102209;-76
2022/12/24 08:14:18;;;;;;;;;3.00;2.00;;;;;5.50;100.00;97520.91;4918357;28;102404;-77
2022/12/24 08:16:45;;;;;;;;;1.50;1.50;;;;;5.65;100.00;97539.56;4919334;28;104411;-76
2022/12/24 08:19:12;;;;;;;;;3.75;3.00;;;;;5.39;100.00;97482.09;4920147;28;101958;-76
2022/12/24 08:21:39;;;;;;;;;1.75;1.50;;;;;5.64;100.00;97522.66;4915235;28;102045;-76
2022/12/24 08:24:06;;;;;;;;;3.50;2.75;;;;;5.49;100.00;97494.31;4924015;28;105788;-76
2022/12/24 08:26:33;;;;;;;;;3.25;2.00;;;;;5.79;100.00;97541.31;4917189;28;103970;-76
2022/12/24 08:29:01;;;;;;;;;4.25;2.75;;;;;5.63;100.00;97510.25;4916065;28;102394;-76
2022/12/24 08:31:29;;;;;;;;;2.50;2.00;;;;;5.80;100.00;97537.63;4891430;28;103345;-76
2022/12/24 08:33:56;;;;;;;;;3.00;2.75;;;;;5.70;100.00;97526.41;4903167;28;102997;-75
2022/12/24 08:36:23;;;;;;;;;6.00;5.75;;;;;5.66;100.00;97525.16;4922820;28;103922;-75
2022/12/24 08:38:50;;;;;;;;;5.75;4.00;;;;;5.88;100.00;97558.97;4910901;28;103138;-76
2022/12/24 08:41:17;;;;;;;;;4.75;3.00;;;;;5.88;100.00;97568.84;4915922;28;102273;-77
2022/12/24 08:43:44;;;;;;;;;3.00;2.00;;;;;5.91;100.00;97571.97;4913555;28;103114;-76
2022/12/24 08:46:11;;;;;;;;;2.00;2.00;;;;;5.94;100.00;97576.13;4906568;28;104012;-75
2022/12/24 08:48:38;;;;;;;;;2.00;2.00;;;;;5.86;100.00;97563.63;4914829;28;102158;-75
2022/12/24 08:51:10;;;;;;;;;1.00;1.00;;;;;5.96;100.00;97577.56;4907962;28;102156;-75
2022/12/24 08:53:37;;;;;;;;;3.75;2.75;;;;;5.97;100.00;97575.72;4912807;28;103823;-75
2022/12/24 08:56:08;;;;;;;;;4.25;1.00;;;;;5.98;100.00;97582.75;4918065;28;102860;-74
2022/12/24 08:58:34;;;;;;;;;1.00;1.00;;;;;5.99;100.00;97579.84;4913903;28;102211;-76
2022/12/24 09:01:13;;;;;;;;;1.75;1.75;;;;;5.99;100.00;97584.41;4910675;28;104170;-75
2022/12/24 09:03:40;;;;;;;;;1.25;1.00;;;;;5.99;100.00;97579.84;4928043;28;102775;-76
2022/12/24 09:06:08;;;;;;;;;2.00;2.00;;;;;6.02;100.00;97590.22;4908281;28;104080;-75
2022/12/24 09:08:36;;;;;;;;;1.00;1.00;;;;;6.05;100.00;97589.81;4925621;28;102062;-77
2022/12/24 09:11:12;;;;;;;;;1.25;1.25;;;;;6.11;100.00;97591.72;4912022;28;102392;-76
2022/12/24 09:13:39;;;;;;;;;2.00;1.00;;;;;6.10;100.00;97587.38;4913351;28;102133;-76
2022/12/24 09:16:07;;;;;;;;;2.00;2.00;;;;;6.15;100.00;97606.38;4912194;28;104152;-78
2022/12/24 09:18:34;;;;;;;;;4.00;2.75;;;;;6.18;100.00;97597.94;4923103;28;102279;-77
2022/12/24 09:21:10;;;;;;;;;1.00;1.00;;;;;6.27;100.00;97603.97;4924895;28;102331;-77
2022/12/24 09:23:40;;;;;;;;;4.00;4.00;;;;;6.29;99.54;97604.59;4919792;28;103939;-77
2022/12/24 09:26:12;;;;;;;;;3.00;3.00;;;;;6.36;99.34;97604.63;4910507;28;104220;-78
2022/12/24 09:28:39;;;;;;;;;2.75;2.25;;;;;6.39;99.26;97598.88;4911442;28;102488;-78
2022/12/24 09:31:06;;;;;;;;;1.00;1.00;;;;;6.49;98.73;97612.75;4917487;28;102065;-78
2022/12/24 09:33:36;;;;;;;;;3.75;3.00;;;;;6.50;98.79;97603.66;4908356;28;102084;-78
2022/12/24 09:36:04;;;;;;;;;2.75;2.00;;;;;6.55;98.54;97606.59;4920656;28;104901;-77
2022/12/24 09:38:32;;;;;;;;;3.50;1.75;;;;;6.64;98.03;97600.00;4915215;28;102256;-78
2022/12/24 09:41:01;;;;;;;;;2.25;2.25;;;;;6.73;97.56;97614.94;4912213;28;102362;-78
2022/12/24 09:43:36;;;;;;;;;1.75;1.75;;;;;6.78;96.55;97617.84;4914014;28;101958;-75
2022/12/24 09:46:26;;;;;;;;;4.00;3.00;;;;;6.83;97.04;97620.75;4908315;28;104083;-76
2022/12/24 09:48:57;;;;;;;;;5.00;4.25;;;;;6.85;96.49;97623.22;4915945;28;102310;-77
2022/12/24 09:51:30;;;;;;;;;7.50;6.75;;;;;6.94;95.83;97622.00;4922765;28;102008;-75
2022/12/24 09:54:16;;;;;;;;;8.25;7.00;;;;;6.94;95.69;97633.59;4920419;28;102473;-76
2022/12/24 09:56:45;;;;;;;;;10.25;7.00;;;;;6.98;95.88;97634.84;4920498;28;107805;-76
2022/12/24 09:59:20;;;;;;;;;8.50;7.75;;;;;7.01;95.66;97639.84;4923266;28;103205;-77
2022/12/24 10:01:50;;;;;;;;;7.75;7.00;;;;;7.02;95.10;97629.91;4913776;28;103654;-78
2022/12/24 10:04:21;;;;;;;;;7.00;6.75;;;;;7.03;95.04;97626.19;4925189;28;102030;-78
2022/12/24 10:06:55;;;;;;;;;7.00;4.50;;;;;7.05;94.53;97638.41;4917933;28;108857;-76
2022/12/24 10:09:28;;;;;;;;;7.00;7.00;;;;;7.06;95.72;97653.50;4921552;28;102038;-77
2022/12/24 10:12:44;;;;;;;;;7.00;6.00;;;;;7.04;95.12;97650.19;4922159;28;102039;-77
2022/12/24 10:15:29;;;;;;;;;8.25;6.25;;;;;7.05;95.37;97667.13;4836489;28;102681;-78
2022/12/24 10:18:12;;;;;;;;;8.00;5.50;;;;;7.06;94.31;97669.63;4837547;28;110086;-77
2022/12/24 10:20:59;;;;;;;;;3.50;3.00;;;;;7.06;95.44;97669.63;4887852;28;102090;-75
2022/12/24 10:23:44;;;;;;;;;3.25;3.00;;;;;7.15;94.98;97675.66;4881363;28;103119;-76
2022/12/24 10:26:28;;;;;;;;;2.50;2.50;;;;;7.17;95.18;97693.22;4899476;28;102425;-77
2022/12/24 10:29:29;;;;;;;;;5.75;4.00;;;;;7.20;94.07;97685.78;4895999;28;108698;-78
2022/12/24 10:32:16;;;;;;;;;7.00;6.00;;;;;7.16;94.45;97688.88;4870903;28;102256;-77
2022/12/24 10:34:56;;;;;;;;;13.25;8.50;;;;;7.24;94.03;97681.69;4891529;28;103761;-78
2022/12/24 10:37:27;;;;;;;;;11.25;8.00;;;;;7.27;93.62;97690.16;4900441;28;102341;-77
2022/12/24 10:39:56;;;;;;;;;7.25;6.00;;;;;7.27;93.09;97694.69;4898851;28;104194;-78
2022/12/24 10:42:34;;;;;;;;;8.25;6.75;;;;;7.33;93.88;97686.66;4890178;28;102108;-76
2022/12/24 10:45:06;;;;;;;;;8.25;7.00;;;;;7.33;93.43;97700.13;4889164;28;103179;-78
2022/12/24 10:47:37;;;;;;;;;12.50;10.75;;;;;7.36;93.76;97702.38;4888940;28;102414;-77
2022/12/24 10:50:12;;;;;;;;;14.75;11.50;;;;;7.44;93.48;97701.34;4888943;28;104154;-78
2022/12/24 10:52:42;;;;;;;;;10.50;9.00;;;;;7.50;94.70;97705.94;4885763;28;102424;-78
2022/12/24 10:55:13;;;;;;;;;11.75;10.00;;;;;7.43;94.08;97695.16;4886373;28;102283;-77
2022/12/24 10:57:42;;;;;;;;;9.00;8.00;;;;;7.45;95.05;97703.84;4881488;28;102440;-78
2022/12/24 11:00:23;;;;;;;;;9.25;7.25;;;;;7.43;94.73;97713.19;4875547;28;104016;-78
2022/12/24 11:03:07;;;;;;;;;13.00;10.25;;;;;7.32;95.20;97701.13;4889210;28;102007;-76
2022/12/24 11:05:36;;;;;;;;;11.25;8.25;;;;;7.30;95.69;97715.78;4894247;28;102286;-77
2022/12/24 11:08:13;;;;;;;;;8.25;7.00;;;;;7.35;96.12;97722.22;4890804;28;102311;-77
2022/12/24 11:10:43;;;;;;;;;6.00;5.25;;;;;7.38;96.48;97729.09;4893230;28;104113;-76
2022/12/24 11:39:02;;;;;;;;;9.00;9.00;;;;;7.32;99.08;97754.09;4090050;28;110644;-79
2022/12/24 11:41:36;;;;;;;;;8.00;7.75;;;;;7.44;99.45;97773.97;4905125;28;102522;-78
2022/12/24 11:44:06;;;;;;;;;9.00;8.00;;;;;7.29;99.49;97781.38;4913643;28;102031;-80
2022/12/24 11:46:38;;;;;;;;;11.75;9.75;;;;;7.34;99.80;97779.72;4906272;28;102601;-80
2022/12/24 11:49:17;;;;;;;;;10.25;8.00;;;;;7.28;99.79;97791.31;4910926;28;103162;-79
2022/12/24 11:52:21;;;;;;;;;14.25;12.25;;;;;7.26;100.00;97809.47;4914385;28;102159;-79
2022/12/24 11:55:02;;;;;;;;;13.00;10.00;;;;;7.29;99.57;97803.72;4866475;28;102089;-78
2022/12/24 11:57:48;;;;;;;;;12.75;9.00;;;;;7.36;99.79;97801.06;4918559;28;102174;-78
2022/12/24 12:00:15;;;;;;;;;13.75;11.25;;;;;7.41;99.25;97810.19;4915456;28;108728;-76
2022/12/24 12:02:46;;;;;;;;;13.00;11.50;;;;;7.46;99.54;97814.97;4925417;28;102308;-77
2022/12/24 12:05:20;;;;;;;;;11.00;9.00;;;;;7.38;98.72;97815.13;4914581;28;104059;-76
2022/12/24 12:07:52;;;;;;;;;13.00;11.25;;;;;7.45;98.93;97826.75;4916374;28;102152;-76
2022/12/24 12:10:36;;;;;;;;;12.50;11.25;;;;;7.44;98.34;97817.00;4905926;28;108375;-77
2022/12/24 12:13:10;;;;;;;;;12.75;10.25;;;;;7.42;98.57;97822.59;4906772;28;102469;-77
2022/12/24 12:15:50;;;;;;;;;14.00;12.25;;;;;7.40;97.74;97829.19;4908663;28;102540;-76
2022/12/24 12:19:02;;;;;;;;;10.75;10.75;;;;;7.44;98.01;97833.97;4897053;28;102959;-77